Sc Hercules — VRQP7 — position and weather

sailwx.info

Track history (hours):
 
Tides and Currents Weather Stations Pressure Air Temp Water Temp Dewpoint Dewpoint Depression Visibility Wind Speed Wind Dir Waves Ship Positions

Sc Hercules

Last reported at 2017-Dec-11 03:06 UTC. Time now 2017-Dec-16 20:46 UTC.
Position N 31°13' E 122°08'.

Length 183 m; draft 8.5 m.

Type: Tanker. MMSI: 477002100.

Date/timePositionNaut miles runAvg speedWind from/ knotsBaromVisibWave heightAir tempDewpointWater temp
2017-Dec-11 03:06N 31°13' E 122°08'414.3
2017-Dec-11 02:48N 31°14' E 122°03'414.1
2017-Dec-11 02:29N 31°15' E 121°58'814.5
2017-Dec-11 01:56N 31°17' E 121°49'1012.0
2017-Dec-11 01:06N 31°21' E 121°38'111.6
2017-Dec-11 00:59N 31°22' E 121°37'611.7
2017-Dec-11 00:31N 31°25' E 121°31'4 8.0
2017-Dec-11 00:00N 31°27' E 121°28'611.0
2017-Dec-10 23:30N 31°31' E 121°23'4 7.5
2017-Dec-10 22:59N 31°34' E 121°20'0 0.1
2017-Dec-10 22:26N 31°34' E 121°20'0 0.0
2017-Dec-10 21:59N 31°34' E 121°20'0 0.0
2017-Dec-10 21:26N 31°34' E 121°20'0 0.3
2017-Dec-10 20:53N 31°34' E 121°20'0 0.1
2017-Dec-10 20:29N 31°34' E 121°20'0 0.1
2017-Dec-10 19:59N 31°34' E 121°20'0 0.1
2017-Dec-10 19:29N 31°34' E 121°20'0 0.0
2017-Dec-10 18:59N 31°34' E 121°20'0 0.0
2017-Dec-10 18:29N 31°34' E 121°20'0 0.0
2017-Dec-10 17:59N 31°34' E 121°20'0 0.0
2017-Dec-10 17:29N 31°34' E 121°20'0 0.0
2017-Dec-10 16:59N 31°34' E 121°20'0 0.0
2017-Dec-10 16:17N 31°34' E 121°20'0 0.0
2017-Dec-10 15:50N 31°34' E 121°20'0 0.0
2017-Dec-10 15:26N 31°34' E 121°20'0 0.1
2017-Dec-10 14:59N 31°34' E 121°20'0 0.0
2017-Dec-10 14:29N 31°34' E 121°20'0 0.0
2017-Dec-10 13:17N 31°34' E 121°20'0 0.0
2017-Dec-10 12:59N 31°34' E 121°20'0 0.3
2017-Dec-10 12:23N 31°34' E 121°20'0 0.1
2017-Dec-10 11:53N 31°34' E 121°20'0 0.1
2017-Dec-10 11:26N 31°34' E 121°20'0 0.0
2017-Dec-10 10:59N 31°34' E 121°20'0 0.0
2017-Dec-10 10:29N 31°34' E 121°20'0 0.1
2017-Dec-10 09:50N 31°34' E 121°20'0 0.1
2017-Dec-10 09:20N 31°34' E 121°20'0 0.3
2017-Dec-10 08:59N 31°34' E 121°20'49 6.6
2017-Dec-10 01:35N 32°01' E 120°32'213.7
2017-Dec-10 01:26N 32°02' E 120°30'3 7.3
2017-Dec-10 01:00N 31°60' E 120°27'1 2.4
2017-Dec-10 00:27N 31°59' E 120°27'0 0.0
2017-Dec-09 23:42N 31°59' E 120°27'0 0.0
2017-Dec-09 23:06N 31°59' E 120°27'0 0.0
2017-Dec-09 21:51N 31°59' E 120°27'0 0.0
2017-Dec-09 21:21N 31°59' E 120°27'0 0.0
2017-Dec-09 21:00N 31°59' E 120°27'0 0.0
2017-Dec-09 19:21N 31°59' E 120°27'0 0.0
2017-Dec-09 19:00N 31°59' E 120°27'0 0.0
2017-Dec-09 17:42N 31°59' E 120°27'0 0.0
2017-Dec-09 17:21N 31°59' E 120°27'0 0.0
2017-Dec-09 16:55N 31°59' E 120°27'0 0.0
2017-Dec-09 16:28N 31°59' E 120°27'0 0.0
2017-Dec-09 15:58N 31°59' E 120°27'0 0.0
2017-Dec-09 15:28N 31°59' E 120°27'0 0.0
2017-Dec-09 14:46N 31°59' E 120°27'0 0.0
2017-Dec-09 14:19N 31°59' E 120°27'0 0.0
2017-Dec-09 13:55N 31°59' E 120°27'0 0.0
2017-Dec-09 13:28N 31°59' E 120°27'0 0.0
2017-Dec-09 12:55N 31°59' E 120°27'0 0.0
2017-Dec-09 12:28N 31°59' E 120°27'0 0.0
2017-Dec-09 11:25N 31°59' E 120°27'0 0.0
2017-Dec-09 09:55N 31°59' E 120°27'0 0.0
2017-Dec-09 07:16N 31°59' E 120°27'0 0.0
2017-Dec-09 03:46N 31°59' E 120°27'0 0.0
2017-Dec-09 03:19N 31°59' E 120°27'0 0.0
2017-Dec-09 01:25N 31°59' E 120°27'0 0.0
2017-Dec-09 00:51N 31°59' E 120°27'0 0.0
2017-Dec-09 00:27N 31°59' E 120°27'0 0.0
2017-Dec-08 23:48N 31°59' E 120°27'0 0.0
2017-Dec-08 23:27N 31°59' E 120°27'0 0.0
2017-Dec-08 23:00N 31°59' E 120°27'0 0.0
2017-Dec-08 22:30N 31°59' E 120°27'0 0.0
2017-Dec-08 21:21N 31°59' E 120°27'0 0.0
2017-Dec-08 18:06N 31°59' E 120°27'0 0.0
2017-Dec-08 17:57N 31°59' E 120°27'0 0.0
2017-Dec-08 17:27N 31°59' E 120°27'0 0.0
2017-Dec-08 16:51N 31°59' E 120°27'0 0.0
2017-Dec-08 15:36N 31°59' E 120°27'0 0.0
2017-Dec-08 15:18N 31°59' E 120°27'0 0.0
2017-Dec-08 14:48N 31°59' E 120°27'0 0.0
2017-Dec-08 14:27N 31°59' E 120°27'0 0.0
2017-Dec-08 14:00N 31°59' E 120°27'0 0.0
2017-Dec-08 10:45N 31°59' E 120°27'0 0.0
2017-Dec-08 10:27N 31°59' E 120°27'0 0.0
2017-Dec-08 09:57N 31°59' E 120°27'0 0.0
2017-Dec-08 09:12N 31°59' E 120°27'0 0.0
2017-Dec-08 08:39N 31°59' E 120°27'0 0.0
2017-Dec-08 08:15N 31°59' E 120°27'0 0.0
2017-Dec-08 03:45N 31°59' E 120°27'0 0.0
2017-Dec-08 02:48N 31°59' E 120°27'0 0.0
2017-Dec-08 02:30N 31°59' E 120°27'0 0.0
2017-Dec-08 01:54N 31°59' E 120°27'0 0.0
2017-Dec-08 01:27N 31°59' E 120°27'0 0.0
2017-Dec-08 00:21N 31°59' E 120°27'0 0.0
2017-Dec-07 23:54N 31°59' E 120°27'0 0.0
2017-Dec-07 23:09N 31°59' E 120°27'0 0.0
2017-Dec-07 22:54N 31°59' E 120°27'0 0.0
2017-Dec-07 22:30N 31°59' E 120°27'0 0.0
2017-Dec-07 22:00N 31°59' E 120°27'0 0.0
2017-Dec-07 21:30N 31°59' E 120°27'0 0.0
2017-Dec-07 19:33N 31°59' E 120°27'0 0.0
2017-Dec-07 19:24N 31°59' E 120°27'0 0.0
2017-Dec-07 18:06N 31°59' E 120°27'0 0.0
2017-Dec-07 15:54N 31°59' E 120°27'0 0.0
2017-Dec-07 15:06N 31°59' E 120°27'0 0.0
2017-Dec-07 14:48N 31°59' E 120°27'0 0.0
2017-Dec-07 14:30N 31°59' E 120°27'0 0.0
2017-Dec-07 14:00N 31°59' E 120°27'0 0.0
2017-Dec-07 13:09N 31°59' E 120°27'0 0.0
2017-Dec-07 12:57N 31°59' E 120°27'0 0.0
2017-Dec-07 12:30N 31°59' E 120°27'0 0.0
2017-Dec-07 12:00N 31°59' E 120°27'0 0.0
2017-Dec-07 11:30N 31°59' E 120°27'1 1.5
2017-Dec-07 11:00N 31°59' E 120°27'3 6.3
2017-Dec-07 10:28N 32°02' E 120°29'7911.8
2017-Dec-07 03:49N 31°18' E 121°46'710.8
2017-Dec-07 03:10N 31°16' E 121°54'210.6
2017-Dec-07 03:00N 31°15' E 121°56'510.0
2017-Dec-07 02:29N 31°15' E 122°02'5 9.3
2017-Dec-07 01:59N 31°13' E 122°07'4 8.9
2017-Dec-07 01:30N 31°11' E 122°11'5 9.8
2017-Dec-07 01:00N 31°08' E 122°16'  
2017-Dec-04 10:02N 25°34' E 120°59'2 9.5
2017-Dec-04 09:51N 25°33' E 120°58'16710.6
2017-Dec-03 18:08N 24°15' E 118°15'110.1
2017-Dec-03 18:00N 24°16' E 118°14'5 9.8
2017-Dec-03 17:29N 24°20' E 118°10'511.1
2017-Dec-03 17:00N 24°24' E 118°06'510.8
2017-Dec-03 16:30N 24°26' E 118°01'1 0.0
2017-Dec-02 07:38N 24°27' E 117°60'0 0.4
2017-Dec-02 07:30N 24°27' E 117°60'2 4.3
2017-Dec-02 07:00N 24°26' E 118°02'4 8.9
2017-Dec-02 06:30N 24°24' E 118°06'5 9.3
2017-Dec-02 06:00N 24°21' E 118°10'71 3.2
2017-Dec-01 07:30N 23°51' E 119°21'5 9.6
2017-Dec-01 07:00N 23°52' E 119°26'5 9.4
2017-Dec-01 06:30N 23°52' E 119°31'7 2.3
2017-Dec-01 03:42N 23°51' E 119°38'1 2.1
2017-Dec-01 03:18N 23°51' E 119°39'  
Track history (hours):
 
Tides and Currents Weather Stations Pressure Air Temp Water Temp Dewpoint Dewpoint Depression Visibility Wind Speed Wind Dir Waves Ship Positions

Sc Hercules

Last reported at 2017-Dec-11 03:06 UTC. Time now 2017-Dec-16 20:46 UTC.
Position N 31°13' E 122°08'.

Length 183 m; draft 8.5 m.

Type: Tanker. MMSI: 477002100.

Date/timePositionNaut miles runAvg speedWind from/ knotsBaromVisibWave heightAir tempDewpointWater temp
2017-Dec-11 03:06N 31°13' E 122°08'414.3
2017-Dec-11 02:48N 31°14' E 122°03'414.1
2017-Dec-11 02:29N 31°15' E 121°58'814.5
2017-Dec-11 01:56N 31°17' E 121°49'1012.0
2017-Dec-11 01:06N 31°21' E 121°38'111.6
2017-Dec-11 00:59N 31°22' E 121°37'611.7
2017-Dec-11 00:31N 31°25' E 121°31'4 8.0
2017-Dec-11 00:00N 31°27' E 121°28'611.0
2017-Dec-10 23:30N 31°31' E 121°23'4 7.5
2017-Dec-10 22:59N 31°34' E 121°20'0 0.1
2017-Dec-10 22:26N 31°34' E 121°20'0 0.0
2017-Dec-10 21:59N 31°34' E 121°20'0 0.0
2017-Dec-10 21:26N 31°34' E 121°20'0 0.3
2017-Dec-10 20:53N 31°34' E 121°20'0 0.1
2017-Dec-10 20:29N 31°34' E 121°20'0 0.1
2017-Dec-10 19:59N 31°34' E 121°20'0 0.1
2017-Dec-10 19:29N 31°34' E 121°20'0 0.0
2017-Dec-10 18:59N 31°34' E 121°20'0 0.0
2017-Dec-10 18:29N 31°34' E 121°20'0 0.0
2017-Dec-10 17:59N 31°34' E 121°20'0 0.0
2017-Dec-10 17:29N 31°34' E 121°20'0 0.0
2017-Dec-10 16:59N 31°34' E 121°20'0 0.0
2017-Dec-10 16:17N 31°34' E 121°20'0 0.0
2017-Dec-10 15:50N 31°34' E 121°20'0 0.0
2017-Dec-10 15:26N 31°34' E 121°20'0 0.1
2017-Dec-10 14:59N 31°34' E 121°20'0 0.0
2017-Dec-10 14:29N 31°34' E 121°20'0 0.0
2017-Dec-10 13:17N 31°34' E 121°20'0 0.0
2017-Dec-10 12:59N 31°34' E 121°20'0 0.3
2017-Dec-10 12:23N 31°34' E 121°20'0 0.1
2017-Dec-10 11:53N 31°34' E 121°20'0 0.1
2017-Dec-10 11:26N 31°34' E 121°20'0 0.0
2017-Dec-10 10:59N 31°34' E 121°20'0 0.0
2017-Dec-10 10:29N 31°34' E 121°20'0 0.1
2017-Dec-10 09:50N 31°34' E 121°20'0 0.1
2017-Dec-10 09:20N 31°34' E 121°20'0 0.3
2017-Dec-10 08:59N 31°34' E 121°20'49 6.6
2017-Dec-10 01:35N 32°01' E 120°32'213.7
2017-Dec-10 01:26N 32°02' E 120°30'3 7.3
2017-Dec-10 01:00N 31°60' E 120°27'1 2.4
2017-Dec-10 00:27N 31°59' E 120°27'0 0.0
2017-Dec-09 23:42N 31°59' E 120°27'0 0.0
2017-Dec-09 23:06N 31°59' E 120°27'0 0.0
2017-Dec-09 21:51N 31°59' E 120°27'0 0.0
2017-Dec-09 21:21N 31°59' E 120°27'0 0.0
2017-Dec-09 21:00N 31°59' E 120°27'0 0.0
2017-Dec-09 19:21N 31°59' E 120°27'0 0.0
2017-Dec-09 19:00N 31°59' E 120°27'0 0.0
2017-Dec-09 17:42N 31°59' E 120°27'0 0.0
2017-Dec-09 17:21N 31°59' E 120°27'0 0.0
2017-Dec-09 16:55N 31°59' E 120°27'0 0.0
2017-Dec-09 16:28N 31°59' E 120°27'0 0.0
2017-Dec-09 15:58N 31°59' E 120°27'0 0.0
2017-Dec-09 15:28N 31°59' E 120°27'0 0.0
2017-Dec-09 14:46N 31°59' E 120°27'0 0.0
2017-Dec-09 14:19N 31°59' E 120°27'0 0.0
2017-Dec-09 13:55N 31°59' E 120°27'0 0.0
2017-Dec-09 13:28N 31°59' E 120°27'0 0.0
2017-Dec-09 12:55N 31°59' E 120°27'0 0.0
2017-Dec-09 12:28N 31°59' E 120°27'0 0.0
2017-Dec-09 11:25N 31°59' E 120°27'0 0.0
2017-Dec-09 09:55N 31°59' E 120°27'0 0.0
2017-Dec-09 07:16N 31°59' E 120°27'0 0.0
2017-Dec-09 03:46N 31°59' E 120°27'0 0.0
2017-Dec-09 03:19N 31°59' E 120°27'0 0.0
2017-Dec-09 01:25N 31°59' E 120°27'0 0.0
2017-Dec-09 00:51N 31°59' E 120°27'0 0.0
2017-Dec-09 00:27N 31°59' E 120°27'0 0.0
2017-Dec-08 23:48N 31°59' E 120°27'0 0.0
2017-Dec-08 23:27N 31°59' E 120°27'0 0.0
2017-Dec-08 23:00N 31°59' E 120°27'0 0.0
2017-Dec-08 22:30N 31°59' E 120°27'0 0.0
2017-Dec-08 21:21N 31°59' E 120°27'0 0.0
2017-Dec-08 18:06N 31°59' E 120°27'0 0.0
2017-Dec-08 17:57N 31°59' E 120°27'0 0.0
2017-Dec-08 17:27N 31°59' E 120°27'0 0.0
2017-Dec-08 16:51N 31°59' E 120°27'0 0.0
2017-Dec-08 15:36N 31°59' E 120°27'0 0.0
2017-Dec-08 15:18N 31°59' E 120°27'0 0.0
2017-Dec-08 14:48N 31°59' E 120°27'0 0.0
2017-Dec-08 14:27N 31°59' E 120°27'0 0.0
2017-Dec-08 14:00N 31°59' E 120°27'0 0.0
2017-Dec-08 10:45N 31°59' E 120°27'0 0.0
2017-Dec-08 10:27N 31°59' E 120°27'0 0.0
2017-Dec-08 09:57N 31°59' E 120°27'0 0.0
2017-Dec-08 09:12N 31°59' E 120°27'0 0.0
2017-Dec-08 08:39N 31°59' E 120°27'0 0.0
2017-Dec-08 08:15N 31°59' E 120°27'0 0.0
2017-Dec-08 03:45N 31°59' E 120°27'0 0.0
2017-Dec-08 02:48N 31°59' E 120°27'0 0.0
2017-Dec-08 02:30N 31°59' E 120°27'0 0.0
2017-Dec-08 01:54N 31°59' E 120°27'0 0.0
2017-Dec-08 01:27N 31°59' E 120°27'0 0.0
2017-Dec-08 00:21N 31°59' E 120°27'0 0.0
2017-Dec-07 23:54N 31°59' E 120°27'0 0.0
2017-Dec-07 23:09N 31°59' E 120°27'0 0.0
2017-Dec-07 22:54N 31°59' E 120°27'0 0.0
2017-Dec-07 22:30N 31°59' E 120°27'0 0.0
2017-Dec-07 22:00N 31°59' E 120°27'0 0.0
2017-Dec-07 21:30N 31°59' E 120°27'0 0.0
2017-Dec-07 19:33N 31°59' E 120°27'0 0.0
2017-Dec-07 19:24N 31°59' E 120°27'0 0.0
2017-Dec-07 18:06N 31°59' E 120°27'0 0.0
2017-Dec-07 15:54N 31°59' E 120°27'0 0.0
2017-Dec-07 15:06N 31°59' E 120°27'0 0.0
2017-Dec-07 14:48N 31°59' E 120°27'0 0.0
2017-Dec-07 14:30N 31°59' E 120°27'0 0.0
2017-Dec-07 14:00N 31°59' E 120°27'0 0.0
2017-Dec-07 13:09N 31°59' E 120°27'0 0.0
2017-Dec-07 12:57N 31°59' E 120°27'0 0.0
2017-Dec-07 12:30N 31°59' E 120°27'0 0.0
2017-Dec-07 12:00N 31°59' E 120°27'0 0.0
2017-Dec-07 11:30N 31°59' E 120°27'1 1.5
2017-Dec-07 11:00N 31°59' E 120°27'3 6.3
2017-Dec-07 10:28N 32°02' E 120°29'7911.8
2017-Dec-07 03:49N 31°18' E 121°46'710.8
2017-Dec-07 03:10N 31°16' E 121°54'210.6
2017-Dec-07 03:00N 31°15' E 121°56'510.0
2017-Dec-07 02:29N 31°15' E 122°02'5 9.3
2017-Dec-07 01:59N 31°13' E 122°07'4 8.9
2017-Dec-07 01:30N 31°11' E 122°11'5 9.8
2017-Dec-07 01:00N 31°08' E 122°16'  
2017-Dec-04 10:02N 25°34' E 120°59'2 9.5
2017-Dec-04 09:51N 25°33' E 120°58'16710.6
2017-Dec-03 18:08N 24°15' E 118°15'110.1
2017-Dec-03 18:00N 24°16' E 118°14'5 9.8
2017-Dec-03 17:29N 24°20' E 118°10'511.1
2017-Dec-03 17:00N 24°24' E 118°06'510.8
2017-Dec-03 16:30N 24°26' E 118°01'1 0.0
2017-Dec-02 07:38N 24°27' E 117°60'0 0.4
2017-Dec-02 07:30N 24°27' E 117°60'2 4.3
2017-Dec-02 07:00N 24°26' E 118°02'4 8.9
2017-Dec-02 06:30N 24°24' E 118°06'5 9.3
2017-Dec-02 06:00N 24°21' E 118°10'71 3.2
2017-Dec-01 07:30N 23°51' E 119°21'5 9.6
2017-Dec-01 07:00N 23°52' E 119°26'5 9.4
2017-Dec-01 06:30N 23°52' E 119°31'7 2.3
2017-Dec-01 03:42N 23°51' E 119°38'1 2.1
2017-Dec-01 03:18N 23°51' E 119°39'  

Dump ship's entire track history